sensor_id;sensor_type;location;lat;lon;timestamp;P1;durP1;ratioP1;P2;durP2;ratioP2
75071;SDS011;63651;55.728;38.022;2023-01-05T00:00:22;0.57;;;0.35;;
75071;SDS011;63651;55.728;38.022;2023-01-05T00:05:23;0.90;;;0.75;;
75071;SDS011;63651;55.728;38.022;2023-01-05T00:10:24;2.33;;;1.95;;
75071;SDS011;63651;55.728;38.022;2023-01-05T00:15:44;1.55;;;1.00;;
75071;SDS011;63651;55.728;38.022;2023-01-05T00:21:07;1.02;;;0.80;;
75071;SDS011;63651;55.728;38.022;2023-01-05T00:26:33;1.25;;;0.73;;
75071;SDS011;63651;55.728;38.022;2023-01-05T00:31:34;1.25;;;1.15;;
75071;SDS011;63651;55.728;38.022;2023-01-05T00:36:35;1.85;;;0.98;;
75071;SDS011;63651;55.728;38.022;2023-01-05T00:41:36;2.38;;;1.02;;
75071;SDS011;63651;55.728;38.022;2023-01-05T00:46:37;1.73;;;0.90;;
75071;SDS011;63651;55.728;38.022;2023-01-05T00:51:38;1.38;;;0.95;;
75071;SDS011;63651;55.728;38.022;2023-01-05T00:56:39;1.13;;;0.85;;
75071;SDS011;63651;55.728;38.022;2023-01-05T01:01:41;1.30;;;0.90;;
75071;SDS011;63651;55.728;38.022;2023-01-05T01:06:45;1.08;;;0.93;;
75071;SDS011;63651;55.728;38.022;2023-01-05T01:11:46;1.40;;;0.88;;
75071;SDS011;63651;55.728;38.022;2023-01-05T01:16:48;1.00;;;0.85;;
75071;SDS011;63651;55.728;38.022;2023-01-05T01:21:49;1.50;;;1.00;;
75071;SDS011;63651;55.728;38.022;2023-01-05T01:26:51;1.33;;;1.00;;
75071;SDS011;63651;55.728;38.022;2023-01-05T01:31:52;1.13;;;1.00;;
75071;SDS011;63651;55.728;38.022;2023-01-05T01:36:54;1.65;;;1.00;;
75071;SDS011;63651;55.728;38.022;2023-01-05T01:41:56;1.67;;;1.20;;
75071;SDS011;63651;55.728;38.022;2023-01-05T01:46:57;1.65;;;1.40;;
75071;SDS011;63651;55.728;38.022;2023-01-05T01:51:58;1.38;;;1.20;;
75071;SDS011;63651;55.728;38.022;2023-01-05T01:56:59;1.85;;;0.90;;
75071;SDS011;63651;55.728;38.022;2023-01-05T02:02:00;0.82;;;0.75;;
75071;SDS011;63651;55.728;38.022;2023-01-05T02:07:01;1.80;;;1.25;;
75071;SDS011;63651;55.728;38.022;2023-01-05T02:17:50;0.95;;;0.70;;
75071;SDS011;63651;55.728;38.022;2023-01-05T02:38:36;1.48;;;0.90;;
75071;SDS011;63651;55.728;38.022;2023-01-05T02:43:45;1.50;;;0.75;;
75071;SDS011;63651;55.728;38.022;2023-01-05T02:48:46;1.13;;;1.02;;
75071;SDS011;63651;55.728;38.022;2023-01-05T02:53:55;1.27;;;0.70;;
75071;SDS011;63651;55.728;38.022;2023-01-05T02:59:20;0.82;;;0.50;;
75071;SDS011;63651;55.728;38.022;2023-01-05T03:09:39;1.30;;;0.63;;
75071;SDS011;63651;55.728;38.022;2023-01-05T03:14:53;0.80;;;0.68;;
75071;SDS011;63651;55.728;38.022;2023-01-05T03:20:01;1.83;;;0.75;;
75071;SDS011;63651;55.728;38.022;2023-01-05T03:25:03;1.33;;;0.65;;
75071;SDS011;63651;55.728;38.022;2023-01-05T03:30:31;1.00;;;0.70;;
75071;SDS011;63651;55.728;38.022;2023-01-05T03:35:57;1.17;;;0.70;;
75071;SDS011;63651;55.728;38.022;2023-01-05T03:41:01;1.23;;;0.73;;
75071;SDS011;63651;55.728;38.022;2023-01-05T03:46:09;1.33;;;0.70;;
75071;SDS011;63651;55.728;38.022;2023-01-05T03:51:15;0.82;;;0.70;;
75071;SDS011;63651;55.728;38.022;2023-01-05T03:56:16;1.00;;;0.80;;
75071;SDS011;63651;55.728;38.022;2023-01-05T04:01:17;1.38;;;0.80;;
75071;SDS011;63651;55.728;38.022;2023-01-05T04:06:18;1.00;;;0.60;;
75071;SDS011;63651;55.728;38.022;2023-01-05T04:11:20;1.23;;;0.82;;
75071;SDS011;63651;55.728;38.022;2023-01-05T04:16:22;1.35;;;0.85;;
75071;SDS011;63651;55.728;38.022;2023-01-05T04:21:23;1.40;;;0.80;;
75071;SDS011;63651;55.728;38.022;2023-01-05T04:26:24;1.13;;;1.00;;
75071;SDS011;63651;55.728;38.022;2023-01-05T04:31:25;1.20;;;0.95;;
75071;SDS011;63651;55.728;38.022;2023-01-05T04:36:26;0.95;;;0.70;;
75071;SDS011;63651;55.728;38.022;2023-01-05T04:41:29;1.55;;;1.00;;
75071;SDS011;63651;55.728;38.022;2023-01-05T04:46:30;1.67;;;1.02;;
75071;SDS011;63651;55.728;38.022;2023-01-05T04:51:31;1.35;;;1.10;;
75071;SDS011;63651;55.728;38.022;2023-01-05T04:56:32;1.10;;;1.00;;
75071;SDS011;63651;55.728;38.022;2023-01-05T05:01:33;1.38;;;0.88;;
75071;SDS011;63651;55.728;38.022;2023-01-05T05:06:34;1.48;;;0.80;;
75071;SDS011;63651;55.728;38.022;2023-01-05T05:11:35;2.22;;;1.42;;
75071;SDS011;63651;55.728;38.022;2023-01-05T05:16:36;1.70;;;1.27;;
75071;SDS011;63651;55.728;38.022;2023-01-05T05:21:37;1.25;;;1.08;;
75071;SDS011;63651;55.728;38.022;2023-01-05T05:26:38;1.98;;;1.52;;
75071;SDS011;63651;55.728;38.022;2023-01-05T05:31:39;1.63;;;1.50;;
75071;SDS011;63651;55.728;38.022;2023-01-05T05:36:40;1.15;;;0.90;;
75071;SDS011;63651;55.728;38.022;2023-01-05T05:41:41;1.80;;;1.23;;
75071;SDS011;63651;55.728;38.022;2023-01-05T05:46:42;1.70;;;1.30;;
75071;SDS011;63651;55.728;38.022;2023-01-05T05:51:43;1.60;;;1.50;;
75071;SDS011;63651;55.728;38.022;2023-01-05T05:56:44;2.22;;;0.60;;
75071;SDS011;63651;55.728;38.022;2023-01-05T06:01:45;1.13;;;1.02;;
75071;SDS011;63651;55.728;38.022;2023-01-05T06:06:46;1.65;;;1.38;;
75071;SDS011;63651;55.728;38.022;2023-01-05T06:11:47;1.42;;;1.30;;
75071;SDS011;63651;55.728;38.022;2023-01-05T06:16:48;1.50;;;1.08;;
75071;SDS011;63651;55.728;38.022;2023-01-05T06:21:49;1.38;;;1.15;;
75071;SDS011;63651;55.728;38.022;2023-01-05T06:26:50;1.88;;;0.90;;
75071;SDS011;63651;55.728;38.022;2023-01-05T06:31:51;1.65;;;1.33;;
75071;SDS011;63651;55.728;38.022;2023-01-05T06:36:52;1.30;;;0.88;;
75071;SDS011;63651;55.728;38.022;2023-01-05T06:41:55;1.20;;;1.00;;
75071;SDS011;63651;55.728;38.022;2023-01-05T06:46:56;1.45;;;1.35;;
75071;SDS011;63651;55.728;38.022;2023-01-05T06:51:57;1.17;;;0.77;;
75071;SDS011;63651;55.728;38.022;2023-01-05T06:56:59;2.03;;;1.30;;
75071;SDS011;63651;55.728;38.022;2023-01-05T07:02:00;1.88;;;1.25;;
75071;SDS011;63651;55.728;38.022;2023-01-05T07:07:01;2.35;;;1.25;;
75071;SDS011;63651;55.728;38.022;2023-01-05T07:12:02;1.25;;;1.10;;
75071;SDS011;63651;55.728;38.022;2023-01-05T07:17:03;1.95;;;1.40;;
75071;SDS011;63651;55.728;38.022;2023-01-05T07:22:04;2.00;;;1.50;;
75071;SDS011;63651;55.728;38.022;2023-01-05T07:27:05;2.25;;;1.48;;
75071;SDS011;63651;55.728;38.022;2023-01-05T07:32:07;2.53;;;1.77;;
75071;SDS011;63651;55.728;38.022;2023-01-05T07:37:08;2.03;;;1.67;;
75071;SDS011;63651;55.728;38.022;2023-01-05T07:42:10;2.15;;;1.77;;
75071;SDS011;63651;55.728;38.022;2023-01-05T07:47:12;2.65;;;2.10;;
75071;SDS011;63651;55.728;38.022;2023-01-05T07:52:13;2.28;;;1.60;;
75071;SDS011;63651;55.728;38.022;2023-01-05T07:57:14;3.03;;;1.80;;
75071;SDS011;63651;55.728;38.022;2023-01-05T08:02:16;2.05;;;1.70;;
75071;SDS011;63651;55.728;38.022;2023-01-05T08:07:17;1.98;;;1.40;;
75071;SDS011;63651;55.728;38.022;2023-01-05T08:12:18;4.10;;;2.00;;
75071;SDS011;63651;55.728;38.022;2023-01-05T08:17:19;1.73;;;1.42;;
75071;SDS011;63651;55.728;38.022;2023-01-05T08:22:20;2.33;;;1.90;;
75071;SDS011;63651;55.728;38.022;2023-01-05T08:27:21;2.05;;;1.50;;
75071;SDS011;63651;55.728;38.022;2023-01-05T08:32:22;2.13;;;1.83;;
75071;SDS011;63651;55.728;38.022;2023-01-05T08:37:23;2.05;;;1.55;;
75071;SDS011;63651;55.728;38.022;2023-01-05T08:42:24;3.00;;;2.00;;
75071;SDS011;63651;55.728;38.022;2023-01-05T08:47:25;3.15;;;2.10;;
75071;SDS011;63651;55.728;38.022;2023-01-05T08:52:26;2.40;;;2.20;;
75071;SDS011;63651;55.728;38.022;2023-01-05T08:57:27;2.47;;;1.80;;
75071;SDS011;63651;55.728;38.022;2023-01-05T09:02:29;2.80;;;1.90;;
75071;SDS011;63651;55.728;38.022;2023-01-05T09:07:30;2.28;;;1.80;;
75071;SDS011;63651;55.728;38.022;2023-01-05T09:12:33;3.50;;;2.42;;
75071;SDS011;63651;55.728;38.022;2023-01-05T09:17:35;2.30;;;2.00;;
75071;SDS011;63651;55.728;38.022;2023-01-05T09:22:36;2.35;;;1.85;;
75071;SDS011;63651;55.728;38.022;2023-01-05T09:27:37;1.70;;;1.52;;
75071;SDS011;63651;55.728;38.022;2023-01-05T09:32:38;3.25;;;2.05;;
75071;SDS011;63651;55.728;38.022;2023-01-05T09:37:39;1.88;;;1.60;;
75071;SDS011;63651;55.728;38.022;2023-01-05T09:42:41;2.17;;;1.55;;
75071;SDS011;63651;55.728;38.022;2023-01-05T09:47:45;2.35;;;1.70;;
75071;SDS011;63651;55.728;38.022;2023-01-05T09:52:47;1.85;;;1.48;;
75071;SDS011;63651;55.728;38.022;2023-01-05T09:58:11;2.45;;;1.50;;
75071;SDS011;63651;55.728;38.022;2023-01-05T10:03:16;1.73;;;1.40;;
75071;SDS011;63651;55.728;38.022;2023-01-05T10:08:36;2.47;;;2.08;;
75071;SDS011;63651;55.728;38.022;2023-01-05T10:13:43;1.83;;;1.38;;
75071;SDS011;63651;55.728;38.022;2023-01-05T10:18:55;1.92;;;1.65;;
75071;SDS011;63651;55.728;38.022;2023-01-05T10:29:23;2.58;;;1.80;;
75071;SDS011;63651;55.728;38.022;2023-01-05T10:45:24;2.08;;;1.33;;
75071;SDS011;63651;55.728;38.022;2023-01-05T10:50:35;2.80;;;1.60;;
75071;SDS011;63651;55.728;38.022;2023-01-05T10:55:44;2.58;;;1.77;;
75071;SDS011;63651;55.728;38.022;2023-01-05T11:00:54;2.50;;;2.10;;
75071;SDS011;63651;55.728;38.022;2023-01-05T11:05:57;2.05;;;1.75;;
75071;SDS011;63651;55.728;38.022;2023-01-05T11:11:00;2.75;;;1.98;;
75071;SDS011;63651;55.728;38.022;2023-01-05T11:21:10;1.90;;;1.27;;
75071;SDS011;63651;55.728;38.022;2023-01-05T11:31:18;2.08;;;0.88;;
75071;SDS011;63651;55.728;38.022;2023-01-05T11:36:19;2.42;;;1.60;;
75071;SDS011;63651;55.728;38.022;2023-01-05T11:41:21;2.17;;;1.13;;
75071;SDS011;63651;55.728;38.022;2023-01-05T11:46:22;2.22;;;1.33;;
75071;SDS011;63651;55.728;38.022;2023-01-05T11:56:38;3.53;;;1.58;;
75071;SDS011;63651;55.728;38.022;2023-01-05T12:34:01;2.90;;;1.95;;
75071;SDS011;63651;55.728;38.022;2023-01-05T12:49:32;2.90;;;2.15;;
75071;SDS011;63651;55.728;38.022;2023-01-05T12:54:50;3.67;;;2.28;;
75071;SDS011;63651;55.728;38.022;2023-01-05T13:05:04;3.20;;;2.00;;
75071;SDS011;63651;55.728;38.022;2023-01-05T13:10:25;3.38;;;1.90;;
75071;SDS011;63651;55.728;38.022;2023-01-05T13:15:34;2.75;;;1.98;;
75071;SDS011;63651;55.728;38.022;2023-01-05T13:20:54;3.53;;;2.55;;
75071;SDS011;63651;55.728;38.022;2023-01-05T13:26:03;3.10;;;2.38;;
75071;SDS011;63651;55.728;38.022;2023-01-05T13:47:46;4.70;;;2.60;;
75071;SDS011;63651;55.728;38.022;2023-01-05T13:58:35;3.85;;;2.83;;
75071;SDS011;63651;55.728;38.022;2023-01-05T14:03:50;3.65;;;2.78;;
75071;SDS011;63651;55.728;38.022;2023-01-05T14:14:09;3.13;;;2.45;;
75071;SDS011;63651;55.728;38.022;2023-01-05T14:19:44;3.88;;;2.70;;
75071;SDS011;63651;55.728;38.022;2023-01-05T14:34:53;4.22;;;2.50;;
75071;SDS011;63651;55.728;38.022;2023-01-05T14:39:57;3.40;;;2.50;;
75071;SDS011;63651;55.728;38.022;2023-01-05T14:45:05;3.30;;;2.63;;
75071;SDS011;63651;55.728;38.022;2023-01-05T15:05:42;4.55;;;3.05;;
75071;SDS011;63651;55.728;38.022;2023-01-05T15:16:05;4.53;;;2.95;;
75071;SDS011;63651;55.728;38.022;2023-01-05T15:31:38;4.13;;;2.92;;
75071;SDS011;63651;55.728;38.022;2023-01-05T15:36:53;4.90;;;3.22;;
75071;SDS011;63651;55.728;38.022;2023-01-05T15:42:05;5.03;;;3.20;;
75071;SDS011;63651;55.728;38.022;2023-01-05T15:47:09;4.93;;;3.50;;
75071;SDS011;63651;55.728;38.022;2023-01-05T15:52:21;4.72;;;3.17;;
75071;SDS011;63651;55.728;38.022;2023-01-05T15:57:29;4.40;;;3.13;;
75071;SDS011;63651;55.728;38.022;2023-01-05T16:02:30;5.10;;;3.20;;
75071;SDS011;63651;55.728;38.022;2023-01-05T16:07:31;5.10;;;3.28;;
75071;SDS011;63651;55.728;38.022;2023-01-05T16:12:32;4.50;;;2.83;;
75071;SDS011;63651;55.728;38.022;2023-01-05T16:17:34;5.13;;;3.17;;
75071;SDS011;63651;55.728;38.022;2023-01-05T16:22:41;3.97;;;2.78;;
75071;SDS011;63651;55.728;38.022;2023-01-05T16:27:57;4.15;;;3.05;;
75071;SDS011;63651;55.728;38.022;2023-01-05T16:38:16;3.38;;;2.50;;
75071;SDS011;63651;55.728;38.022;2023-01-05T16:53:44;4.25;;;2.60;;
75071;SDS011;63651;55.728;38.022;2023-01-05T16:58:47;3.92;;;2.90;;
75071;SDS011;63651;55.728;38.022;2023-01-05T17:03:49;5.80;;;3.22;;
75071;SDS011;63651;55.728;38.022;2023-01-05T17:08:51;4.05;;;3.20;;
75071;SDS011;63651;55.728;38.022;2023-01-05T17:13:53;4.70;;;3.08;;
75071;SDS011;63651;55.728;38.022;2023-01-05T17:18:55;3.85;;;2.47;;
75071;SDS011;63651;55.728;38.022;2023-01-05T17:23:56;3.72;;;2.42;;
75071;SDS011;63651;55.728;38.022;2023-01-05T17:29:00;4.15;;;2.33;;
75071;SDS011;63651;55.728;38.022;2023-01-05T17:34:02;4.65;;;2.78;;
75071;SDS011;63651;55.728;38.022;2023-01-05T17:39:03;4.57;;;3.17;;
75071;SDS011;63651;55.728;38.022;2023-01-05T17:44:04;5.00;;;2.80;;
75071;SDS011;63651;55.728;38.022;2023-01-05T17:49:06;5.88;;;2.80;;
75071;SDS011;63651;55.728;38.022;2023-01-05T17:54:16;3.92;;;2.65;;
75071;SDS011;63651;55.728;38.022;2023-01-05T17:59:17;4.97;;;2.45;;
75071;SDS011;63651;55.728;38.022;2023-01-05T18:04:18;4.68;;;2.80;;
75071;SDS011;63651;55.728;38.022;2023-01-05T18:09:19;5.13;;;2.90;;
75071;SDS011;63651;55.728;38.022;2023-01-05T18:14:20;5.22;;;2.90;;
75071;SDS011;63651;55.728;38.022;2023-01-05T18:19:21;5.13;;;3.00;;
75071;SDS011;63651;55.728;38.022;2023-01-05T18:24:22;4.13;;;2.60;;
75071;SDS011;63651;55.728;38.022;2023-01-05T18:29:23;5.63;;;2.60;;
75071;SDS011;63651;55.728;38.022;2023-01-05T18:34:25;5.03;;;3.25;;
75071;SDS011;63651;55.728;38.022;2023-01-05T18:39:26;4.93;;;3.38;;
75071;SDS011;63651;55.728;38.022;2023-01-05T18:44:27;4.22;;;2.63;;
75071;SDS011;63651;55.728;38.022;2023-01-05T18:49:28;5.05;;;2.53;;
75071;SDS011;63651;55.728;38.022;2023-01-05T18:54:29;5.00;;;3.00;;
75071;SDS011;63651;55.728;38.022;2023-01-05T18:59:30;5.15;;;3.17;;
75071;SDS011;63651;55.728;38.022;2023-01-05T19:04:31;4.68;;;2.88;;
75071;SDS011;63651;55.728;38.022;2023-01-05T19:09:32;4.53;;;2.78;;
75071;SDS011;63651;55.728;38.022;2023-01-05T19:14:34;5.28;;;3.10;;
75071;SDS011;63651;55.728;38.022;2023-01-05T19:19:35;5.00;;;3.05;;
75071;SDS011;63651;55.728;38.022;2023-01-05T19:24:36;4.60;;;2.88;;
75071;SDS011;63651;55.728;38.022;2023-01-05T19:29:37;4.15;;;2.70;;
75071;SDS011;63651;55.728;38.022;2023-01-05T19:34:38;6.47;;;3.17;;
75071;SDS011;63651;55.728;38.022;2023-01-05T19:39:39;4.85;;;2.95;;
75071;SDS011;63651;55.728;38.022;2023-01-05T19:44:40;5.90;;;3.05;;
75071;SDS011;63651;55.728;38.022;2023-01-05T19:49:41;6.30;;;3.03;;
75071;SDS011;63651;55.728;38.022;2023-01-05T19:54:42;4.22;;;3.00;;
75071;SDS011;63651;55.728;38.022;2023-01-05T19:59:44;6.45;;;3.10;;
75071;SDS011;63651;55.728;38.022;2023-01-05T20:04:45;5.47;;;3.08;;
75071;SDS011;63651;55.728;38.022;2023-01-05T20:09:49;4.85;;;2.97;;
75071;SDS011;63651;55.728;38.022;2023-01-05T20:14:50;4.80;;;3.10;;
75071;SDS011;63651;55.728;38.022;2023-01-05T20:19:52;4.30;;;2.65;;
75071;SDS011;63651;55.728;38.022;2023-01-05T20:24:52;4.50;;;3.10;;
75071;SDS011;63651;55.728;38.022;2023-01-05T20:29:54;5.13;;;2.80;;
75071;SDS011;63651;55.728;38.022;2023-01-05T20:34:56;6.38;;;2.90;;
75071;SDS011;63651;55.728;38.022;2023-01-05T20:40:00;4.40;;;3.08;;
75071;SDS011;63651;55.728;38.022;2023-01-05T20:45:01;5.72;;;2.78;;
75071;SDS011;63651;55.728;38.022;2023-01-05T20:50:04;5.63;;;2.45;;
75071;SDS011;63651;55.728;38.022;2023-01-05T20:55:05;5.35;;;3.00;;
75071;SDS011;63651;55.728;38.022;2023-01-05T21:00:07;3.83;;;2.13;;
75071;SDS011;63651;55.728;38.022;2023-01-05T21:05:09;5.65;;;2.85;;
75071;SDS011;63651;55.728;38.022;2023-01-05T21:10:11;4.90;;;2.85;;
75071;SDS011;63651;55.728;38.022;2023-01-05T21:15:12;4.20;;;3.10;;
75071;SDS011;63651;55.728;38.022;2023-01-05T21:20:13;5.07;;;2.88;;
75071;SDS011;63651;55.728;38.022;2023-01-05T21:25:15;3.97;;;2.72;;
75071;SDS011;63651;55.728;38.022;2023-01-05T21:30:16;3.65;;;2.55;;
75071;SDS011;63651;55.728;38.022;2023-01-05T21:35:17;4.57;;;2.50;;
75071;SDS011;63651;55.728;38.022;2023-01-05T21:40:18;4.38;;;2.80;;
75071;SDS011;63651;55.728;38.022;2023-01-05T21:45:19;5.60;;;2.60;;
75071;SDS011;63651;55.728;38.022;2023-01-05T21:50:21;4.07;;;2.63;;
75071;SDS011;63651;55.728;38.022;2023-01-05T21:55:40;5.00;;;2.47;;
75071;SDS011;63651;55.728;38.022;2023-01-05T22:01:00;4.80;;;2.58;;
75071;SDS011;63651;55.728;38.022;2023-01-05T22:06:02;3.72;;;2.28;;
75071;SDS011;63651;55.728;38.022;2023-01-05T22:11:03;4.35;;;2.58;;
75071;SDS011;63651;55.728;38.022;2023-01-05T22:16:04;4.35;;;2.83;;
75071;SDS011;63651;55.728;38.022;2023-01-05T22:21:07;3.50;;;2.30;;
75071;SDS011;63651;55.728;38.022;2023-01-05T22:26:11;3.63;;;2.30;;
75071;SDS011;63651;55.728;38.022;2023-01-05T22:31:16;4.40;;;2.40;;
75071;SDS011;63651;55.728;38.022;2023-01-05T22:36:22;4.38;;;2.50;;
75071;SDS011;63651;55.728;38.022;2023-01-05T22:41:26;4.10;;;2.47;;
75071;SDS011;63651;55.728;38.022;2023-01-05T22:46:29;3.75;;;2.70;;
75071;SDS011;63651;55.728;38.022;2023-01-05T22:51:32;5.00;;;2.70;;
75071;SDS011;63651;55.728;38.022;2023-01-05T22:56:35;4.30;;;1.85;;
75071;SDS011;63651;55.728;38.022;2023-01-05T23:01:37;5.32;;;2.78;;
75071;SDS011;63651;55.728;38.022;2023-01-05T23:06:43;3.38;;;2.13;;
75071;SDS011;63651;55.728;38.022;2023-01-05T23:11:44;3.28;;;2.05;;
75071;SDS011;63651;55.728;38.022;2023-01-05T23:16:46;4.15;;;2.63;;
75071;SDS011;63651;55.728;38.022;2023-01-05T23:21:47;3.47;;;2.20;;
75071;SDS011;63651;55.728;38.022;2023-01-05T23:31:49;4.35;;;1.88;;
75071;SDS011;63651;55.728;38.022;2023-01-05T23:36:50;3.25;;;2.20;;
75071;SDS011;63651;55.728;38.022;2023-01-05T23:41:51;4.80;;;2.15;;
75071;SDS011;63651;55.728;38.022;2023-01-05T23:46:52;5.18;;;2.63;;
75071;SDS011;63651;55.728;38.022;2023-01-05T23:56:54;3.45;;;2.30;;
